createdAt,value
2018-07-27T00:00:17.446Z,19.82
2018-07-27T00:02:49.466Z,19.91
2018-07-27T00:05:21.514Z,19.75
2018-07-27T00:07:53.530Z,19.59
2018-07-27T00:10:25.540Z,19.58
2018-07-27T00:12:57.608Z,19.64
2018-07-27T00:15:29.735Z,19.55
2018-07-27T00:18:01.825Z,19.48
2018-07-27T00:20:33.894Z,19.43
2018-07-27T00:23:06.061Z,19.38
2018-07-27T00:25:38.135Z,19.27
2018-07-27T00:28:10.173Z,19.45
2018-07-27T00:30:42.512Z,19.46
2018-07-27T00:33:14.572Z,19.41
2018-07-27T00:35:46.608Z,19.45
2018-07-27T00:38:18.671Z,19.39
2018-07-27T00:40:50.707Z,19.25
2018-07-27T00:43:22.748Z,19.33
2018-07-27T00:45:54.819Z,19.31
2018-07-27T00:48:26.825Z,19.38
2018-07-27T00:50:58.886Z,19.38
2018-07-27T00:53:30.980Z,19.27
2018-07-27T00:56:03.022Z,19.25
2018-07-27T00:58:35.039Z,19.11
2018-07-27T01:01:07.078Z,19.05
2018-07-27T01:03:39.124Z,19.02
2018-07-27T01:06:11.241Z,19.01
2018-07-27T01:08:43.291Z,18.86
2018-07-27T01:11:15.372Z,18.77
2018-07-27T01:13:47.435Z,18.77
2018-07-27T01:16:19.511Z,18.73
2018-07-27T01:18:51.588Z,18.71
2018-07-27T01:21:23.644Z,18.78
2018-07-27T01:23:55.736Z,19.21
2018-07-27T01:26:27.903Z,19.34
2018-07-27T01:28:59.968Z,19.21
2018-07-27T01:31:32.105Z,19.03
2018-07-27T01:34:04.219Z,18.96
2018-07-27T01:36:36.288Z,18.86
2018-07-27T01:39:11.835Z,18.77
2018-07-27T01:41:43.894Z,18.72
2018-07-27T01:44:15.961Z,18.72
2018-07-27T01:46:48.114Z,18.62
2018-07-27T01:49:20.155Z,18.59
2018-07-27T01:51:52.199Z,18.67
2018-07-27T01:54:24.236Z,18.59
2018-07-27T01:56:56.341Z,18.83
2018-07-27T01:59:28.393Z,18.87
2018-07-27T02:02:00.455Z,18.92
2018-07-27T02:04:32.483Z,18.92
2018-07-27T02:07:04.614Z,18.78
2018-07-27T02:09:36.700Z,18.78
2018-07-27T02:12:08.774Z,18.67
2018-07-27T02:14:40.828Z,18.53
2018-07-27T02:17:12.898Z,18.40
2018-07-27T02:19:44.956Z,18.29
2018-07-27T02:22:16.996Z,18.15
2018-07-27T02:24:49.243Z,18.05
2018-07-27T02:27:21.305Z,18.22
2018-07-27T02:29:53.335Z,18.43
2018-07-27T02:32:25.411Z,18.58
2018-07-27T02:34:57.450Z,18.59
2018-07-27T02:37:29.479Z,18.50
2018-07-27T02:40:01.620Z,18.52
2018-07-27T02:42:33.647Z,18.48
2018-07-27T02:45:05.788Z,18.55
2018-07-27T02:47:37.807Z,18.55
2018-07-27T02:50:09.852Z,18.59
2018-07-27T02:52:41.889Z,18.53
2018-07-27T02:55:13.972Z,18.51
2018-07-27T02:57:46.087Z,18.50
2018-07-27T03:00:18.165Z,18.41
2018-07-27T03:02:50.223Z,18.29
2018-07-27T03:05:22.268Z,18.30
2018-07-27T03:07:54.324Z,18.39
2018-07-27T03:10:26.388Z,18.37
2018-07-27T03:12:58.504Z,18.43
2018-07-27T03:15:30.555Z,18.41
2018-07-27T03:18:02.631Z,18.45
2018-07-27T03:20:34.684Z,18.44
2018-07-27T03:23:06.820Z,18.45
2018-07-27T03:25:38.923Z,18.41
2018-07-27T03:28:10.967Z,18.29
2018-07-27T03:30:42.991Z,18.17
2018-07-27T03:33:15.017Z,18.18
2018-07-27T03:35:47.086Z,18.08
2018-07-27T03:38:19.145Z,17.98
2018-07-27T03:40:51.245Z,18.13
2018-07-27T03:43:23.308Z,18.03
2018-07-27T03:45:55.375Z,18.02
2018-07-27T03:48:27.420Z,18.04
2018-07-27T03:50:59.458Z,18.05
2018-07-27T03:53:31.532Z,18.11
2018-07-27T03:56:03.648Z,18.15
2018-07-27T03:58:35.735Z,18.16
2018-07-27T04:01:07.847Z,18.31
2018-07-27T04:03:40.965Z,18.46
2018-07-27T04:06:12.995Z,18.58
2018-07-27T04:08:45.088Z,18.71
2018-07-27T04:11:17.188Z,18.82
2018-07-27T04:13:49.274Z,18.98
2018-07-27T04:16:21.281Z,19.00
2018-07-27T04:18:53.323Z,19.12
2018-07-27T04:21:25.359Z,19.15
2018-07-27T04:23:57.436Z,19.31
2018-07-27T04:26:29.470Z,19.38
2018-07-27T04:29:01.572Z,19.41
2018-07-27T04:31:33.674Z,19.46
2018-07-27T04:34:05.743Z,19.55
2018-07-27T04:36:37.810Z,19.58
2018-07-27T04:39:10.795Z,19.59
2018-07-27T04:41:42.824Z,19.73
2018-07-27T04:44:14.851Z,19.97
2018-07-27T04:46:46.894Z,19.85
2018-07-27T04:49:18.952Z,20.11
2018-07-27T04:51:50.991Z,20.84
2018-07-27T04:54:23.070Z,21.27
2018-07-27T04:56:55.125Z,21.44
2018-07-27T04:59:27.202Z,21.18
2018-07-27T05:01:59.327Z,21.29
2018-07-27T05:04:31.372Z,21.89
2018-07-27T05:07:03.488Z,22.91
2018-07-27T05:09:35.526Z,24.05
2018-07-27T05:12:07.643Z,25.16
2018-07-27T05:14:39.702Z,25.49
2018-07-27T05:17:11.728Z,26.15
2018-07-27T05:19:44.787Z,26.24
2018-07-27T05:22:16.809Z,26.14
2018-07-27T05:24:48.839Z,27.11
2018-07-27T05:27:20.869Z,27.06
2018-07-27T05:29:52.912Z,28.15
2018-07-27T05:32:24.975Z,28.21
2018-07-27T05:34:57.012Z,27.92
2018-07-27T05:37:29.119Z,28.12
2018-07-27T05:40:01.155Z,28.18
2018-07-27T05:42:33.248Z,28.46
2018-07-27T05:45:05.315Z,29.13
2018-07-27T05:47:37.363Z,29.25
2018-07-27T05:50:09.413Z,29.54
2018-07-27T05:52:41.435Z,30.12
2018-07-27T05:55:13.456Z,30.74
2018-07-27T05:57:45.524Z,31.26
2018-07-27T06:00:17.611Z,31.05
2018-07-27T06:02:49.697Z,31.38
2018-07-27T06:05:21.819Z,31.72
2018-07-27T06:07:53.869Z,33.09
2018-07-27T06:10:25.915Z,32.35
2018-07-27T06:12:58.010Z,33.96
2018-07-27T06:15:30.043Z,33.43
2018-07-27T06:18:02.175Z,34.21
2018-07-27T06:20:34.311Z,34.98
2018-07-27T06:23:06.535Z,34.76
2018-07-27T06:25:38.590Z,33.94
2018-07-27T06:28:10.601Z,34.22
2018-07-27T06:30:42.631Z,35.27
2018-07-27T06:33:14.646Z,34.44
2018-07-27T06:35:46.716Z,35.04
2018-07-27T06:38:18.771Z,34.42
2018-07-27T06:40:50.811Z,33.26
2018-07-27T06:43:22.815Z,33.94
2018-07-27T06:45:54.868Z,33.90
2018-07-27T06:48:26.893Z,33.97
2018-07-27T06:50:58.918Z,34.09
2018-07-27T06:53:30.970Z,34.28
2018-07-27T06:56:03.036Z,33.91
2018-07-27T06:58:35.052Z,32.60
2018-07-27T07:01:07.116Z,32.20
2018-07-27T07:03:39.172Z,31.88
2018-07-27T07:06:11.195Z,31.65
2018-07-27T07:08:43.801Z,30.08
2018-07-27T07:11:15.799Z,30.08
2018-07-27T07:13:47.845Z,31.30
2018-07-27T07:16:19.920Z,32.04
2018-07-27T07:18:51.951Z,31.67
2018-07-27T07:21:24.075Z,31.30
2018-07-27T07:23:56.107Z,31.38
2018-07-27T07:26:28.175Z,32.67
2018-07-27T07:29:00.283Z,34.23
2018-07-27T07:31:32.345Z,33.38
2018-07-27T07:34:04.412Z,32.11
2018-07-27T07:36:36.531Z,30.90
2018-07-27T07:39:10.171Z,31.41
2018-07-27T07:41:42.356Z,31.79
2018-07-27T07:44:14.402Z,31.96
2018-07-27T07:46:46.455Z,31.93
2018-07-27T07:49:18.539Z,31.69
2018-07-27T07:51:50.600Z,31.52
2018-07-27T07:54:22.719Z,32.62
2018-07-27T07:56:54.765Z,33.05
2018-07-27T07:59:26.817Z,32.98
2018-07-27T08:01:58.832Z,32.96
2018-07-27T08:04:30.954Z,34.99
2018-07-27T08:07:03.126Z,35.36
2018-07-27T08:09:35.229Z,36.32
2018-07-27T08:12:07.246Z,36.48
2018-07-27T08:14:39.284Z,35.73
2018-07-27T08:17:11.407Z,35.67
2018-07-27T08:19:43.347Z,35.67
2018-07-27T08:22:15.403Z,35.65
2018-07-27T08:24:47.446Z,35.76
2018-07-27T08:27:19.486Z,36.57
2018-07-27T08:29:51.513Z,37.18
2018-07-27T08:32:23.599Z,36.88
2018-07-27T08:34:55.621Z,36.59
2018-07-27T08:37:27.683Z,36.91
2018-07-27T08:39:59.685Z,35.90
2018-07-27T08:42:31.760Z,35.66
2018-07-27T08:45:04.020Z,35.75
2018-07-27T08:47:36.091Z,36.83
2018-07-27T08:50:08.186Z,37.80
2018-07-27T08:52:40.227Z,37.31
2018-07-27T08:55:12.292Z,35.31
2018-07-27T08:57:45.409Z,35.19
2018-07-27T09:00:22.116Z,36.26
2018-07-27T09:02:54.128Z,35.38
2018-07-27T09:05:26.148Z,35.90
2018-07-27T09:07:58.226Z,35.51
2018-07-27T09:10:30.252Z,36.06
2018-07-27T09:13:02.273Z,36.50
2018-07-27T09:15:34.279Z,36.80
2018-07-27T09:18:06.576Z,35.99
2018-07-27T09:20:38.613Z,36.30
2018-07-27T09:23:10.651Z,36.96
2018-07-27T09:25:42.703Z,36.37
2018-07-27T09:28:14.768Z,35.97
2018-07-27T09:30:46.868Z,36.53
2018-07-27T09:33:18.907Z,36.62
2018-07-27T09:35:51.295Z,35.91
2018-07-27T09:38:23.345Z,35.66
2018-07-27T09:40:55.352Z,36.63
2018-07-27T09:43:27.478Z,36.84
2018-07-27T09:45:59.591Z,35.63
2018-07-27T09:48:31.635Z,35.64
2018-07-27T09:51:03.724Z,35.98
2018-07-27T09:53:35.751Z,37.08
2018-07-27T09:56:07.784Z,37.10
2018-07-27T09:58:39.802Z,36.34
2018-07-27T10:01:17.499Z,37.26
2018-07-27T10:03:49.882Z,37.35
2018-07-27T10:06:21.885Z,38.32
2018-07-27T10:08:53.928Z,37.93
2018-07-27T10:11:25.953Z,37.46
2018-07-27T10:13:58.037Z,38.45
2018-07-27T10:16:30.100Z,39.87
2018-07-27T10:19:02.163Z,39.60
2018-07-27T10:21:34.196Z,39.17
2018-07-27T10:24:06.285Z,39.43
2018-07-27T10:26:38.352Z,39.42
2018-07-27T10:29:10.377Z,37.18
2018-07-27T10:31:42.415Z,36.39
2018-07-27T10:34:14.464Z,36.71
2018-07-27T10:36:46.539Z,36.87
2018-07-27T10:39:18.597Z,37.28
2018-07-27T10:41:50.632Z,37.46
2018-07-27T10:44:22.825Z,37.94
2018-07-27T10:46:54.861Z,37.21
2018-07-27T10:49:26.929Z,37.82
2018-07-27T10:51:58.954Z,36.24
2018-07-27T10:54:31.000Z,36.15
2018-07-27T10:57:03.122Z,36.48
2018-07-27T10:59:35.151Z,37.69
2018-07-27T11:02:07.212Z,37.57
2018-07-27T11:04:39.482Z,36.84
2018-07-27T11:07:11.549Z,37.56
2018-07-27T11:09:43.915Z,36.68
2018-07-27T11:12:15.967Z,36.99
2018-07-27T11:14:48.452Z,37.08
2018-07-27T11:17:20.577Z,36.15
2018-07-27T11:19:52.591Z,35.57
2018-07-27T11:22:24.644Z,35.00
2018-07-27T11:24:56.746Z,35.09
2018-07-27T11:27:28.802Z,34.76
2018-07-27T11:30:01.036Z,36.12
2018-07-27T11:32:33.079Z,37.47
2018-07-27T11:41:16.131Z,33.82
2018-07-27T11:46:58.381Z,34.37
2018-07-27T12:01:06.651Z,31.70
2018-07-27T13:03:04.879Z,32.25
2018-07-27T13:09:19.864Z,31.20
2018-07-27T13:11:53.131Z,31.42
2018-07-27T13:14:28.420Z,31.05
2018-07-27T13:17:02.165Z,31.02
2018-07-27T13:19:42.556Z,31.62
2018-07-27T13:22:17.366Z,31.77
2018-07-27T13:27:24.430Z,32.31
2018-07-27T13:29:57.869Z,35.16
2018-07-27T13:38:27.901Z,38.21
2018-07-27T13:41:01.282Z,37.74
2018-07-27T13:43:40.250Z,40.12
2018-07-27T13:46:14.791Z,40.61
2018-07-27T13:48:49.791Z,38.79
2018-07-27T13:51:47.782Z,39.31
2018-07-27T14:00:28.054Z,36.12
2018-07-27T14:03:00.155Z,35.36
2018-07-27T14:05:32.225Z,35.71
2018-07-27T14:08:04.411Z,35.82
2018-07-27T14:10:36.457Z,35.46
2018-07-27T14:13:09.356Z,34.39
2018-07-27T14:15:41.467Z,34.65
2018-07-27T14:18:13.615Z,34.45
2018-07-27T14:20:45.656Z,34.18
2018-07-27T14:23:17.721Z,35.59
2018-07-27T14:25:49.767Z,35.45
2018-07-27T14:28:21.886Z,36.84
2018-07-27T14:30:53.996Z,35.77
2018-07-27T14:33:26.131Z,37.40
2018-07-27T14:35:58.190Z,37.13
2018-07-27T14:38:30.271Z,38.16
2018-07-27T14:41:02.383Z,38.85
2018-07-27T14:43:34.625Z,38.48
2018-07-27T14:46:07.315Z,37.11
2018-07-27T14:48:39.432Z,37.72
2018-07-27T14:51:11.519Z,37.38
2018-07-27T14:53:43.603Z,37.69
2018-07-27T14:56:15.670Z,37.94
2018-07-27T14:58:47.791Z,38.02
2018-07-27T15:01:19.826Z,37.07
2018-07-27T15:03:51.967Z,37.03
2018-07-27T15:06:24.043Z,35.87
2018-07-27T15:08:56.187Z,37.10
2018-07-27T15:11:28.265Z,38.88
2018-07-27T15:14:01.412Z,37.04
2018-07-27T15:16:33.508Z,34.57
2018-07-27T15:19:05.603Z,35.37
2018-07-27T15:21:37.680Z,34.53
2018-07-27T15:24:09.742Z,32.99
2018-07-27T15:26:41.806Z,32.50
2018-07-27T15:29:13.831Z,32.19
2018-07-27T15:31:45.890Z,31.93
2018-07-27T15:34:17.986Z,31.63
2018-07-27T15:36:50.525Z,31.40
2018-07-27T15:39:23.719Z,31.21
2018-07-27T15:41:55.865Z,31.30
2018-07-27T15:44:27.918Z,32.59
2018-07-27T15:46:59.983Z,34.76
2018-07-27T15:49:32.051Z,35.64
2018-07-27T15:52:04.177Z,34.00
2018-07-27T15:54:36.276Z,33.66
2018-07-27T15:57:08.386Z,34.21
2018-07-27T15:59:40.474Z,32.89
2018-07-27T16:02:12.563Z,31.90
2018-07-27T16:04:44.685Z,31.22
2018-07-27T16:07:16.813Z,30.85
2018-07-27T16:09:48.859Z,30.96
2018-07-27T16:12:20.915Z,31.11
2018-07-27T16:14:53.010Z,31.19
2018-07-27T16:17:25.100Z,31.85
2018-07-27T16:19:57.205Z,32.35
2018-07-27T16:22:29.279Z,33.38
2018-07-27T16:25:01.385Z,33.54
2018-07-27T16:27:33.434Z,32.40
2018-07-27T16:30:05.555Z,31.50
2018-07-27T16:32:37.637Z,31.74
2018-07-27T16:35:09.790Z,31.41
2018-07-27T16:37:41.832Z,31.68
2018-07-27T16:40:13.963Z,32.22
2018-07-27T16:42:46.085Z,32.89
2018-07-27T16:45:18.195Z,33.28
2018-07-27T16:47:50.219Z,33.25
2018-07-27T16:50:23.367Z,33.41
2018-07-27T16:52:55.432Z,33.40
2018-07-27T16:55:27.508Z,33.22
2018-07-27T16:57:59.578Z,32.81
2018-07-27T17:00:31.713Z,32.41
2018-07-27T17:03:03.763Z,31.95
2018-07-27T17:05:35.803Z,31.81
2018-07-27T17:08:07.918Z,31.41
2018-07-27T17:10:40.004Z,30.90
2018-07-27T17:13:12.137Z,30.98
2018-07-27T17:15:44.215Z,30.84
2018-07-27T17:18:16.275Z,30.85
2018-07-27T17:20:48.349Z,30.57
2018-07-27T17:23:20.387Z,30.68
2018-07-27T17:25:52.467Z,30.53
2018-07-27T17:28:24.519Z,30.36
2018-07-27T17:30:56.603Z,30.28
2018-07-27T17:33:28.644Z,30.17
2018-07-27T17:36:00.696Z,30.15
2018-07-27T17:38:32.858Z,30.28
2018-07-27T17:41:05.386Z,30.26
2018-07-27T17:43:37.435Z,30.04
2018-07-27T17:46:09.502Z,30.05
2018-07-27T17:48:41.595Z,30.22
2018-07-27T17:51:13.733Z,30.04
2018-07-27T17:53:45.807Z,29.98
2018-07-27T17:56:17.899Z,29.87
2018-07-27T17:58:51.209Z,29.80
2018-07-27T18:01:23.690Z,29.72
2018-07-27T18:03:55.751Z,29.70
2018-07-27T18:06:27.878Z,29.58
2018-07-27T18:09:00.053Z,29.40
2018-07-27T18:11:32.182Z,29.29
2018-07-27T18:14:04.266Z,29.16
2018-07-27T18:16:36.352Z,29.07
2018-07-27T18:19:08.526Z,28.97
2018-07-27T18:21:40.771Z,28.81
2018-07-27T18:24:12.839Z,28.70
2018-07-27T18:26:44.907Z,28.57
2018-07-27T18:29:16.934Z,28.49
2018-07-27T19:48:07.342Z,24.39
2018-07-27T19:50:39.614Z,24.38
2018-07-27T19:56:09.423Z,24.34
2018-07-27T19:58:41.427Z,24.45
2018-07-27T20:01:13.479Z,24.38
2018-07-27T20:03:45.597Z,24.36
2018-07-27T20:06:17.691Z,24.25
2018-07-27T20:08:49.691Z,24.15
2018-07-27T20:11:21.749Z,24.08
2018-07-27T20:13:53.880Z,24.01
2018-07-27T20:16:25.959Z,23.90
2018-07-27T20:18:58.021Z,23.77
2018-07-27T20:21:30.129Z,23.66
2018-07-27T20:24:02.186Z,23.67
2018-07-27T20:26:34.213Z,23.49
2018-07-27T20:29:06.246Z,23.30
2018-07-27T20:31:38.531Z,23.08
2018-07-27T20:34:10.574Z,23.04
2018-07-27T20:36:42.658Z,23.04
2018-07-27T20:39:14.699Z,23.09
2018-07-27T20:41:46.738Z,22.95
2018-07-27T20:44:18.784Z,22.79
2018-07-27T20:46:50.825Z,22.62
2018-07-27T20:49:22.840Z,22.56
2018-07-27T20:51:59.709Z,22.54
2018-07-27T20:54:31.722Z,22.52
2018-07-27T20:57:03.949Z,22.62
2018-07-27T20:59:35.914Z,22.83
2018-07-27T21:02:07.964Z,22.82
2018-07-27T21:04:40.037Z,22.82
2018-07-27T21:07:12.095Z,22.71
2018-07-27T21:09:44.130Z,22.69
2018-07-27T21:12:16.150Z,22.54
2018-07-27T21:14:48.175Z,22.30
2018-07-27T21:17:20.290Z,22.23
2018-07-27T21:19:52.331Z,22.32
2018-07-27T21:22:24.361Z,22.32
2018-07-27T21:24:56.462Z,22.22
2018-07-27T21:27:28.515Z,22.13
2018-07-27T21:30:00.535Z,22.02
2018-07-27T21:32:32.572Z,21.78
2018-07-27T21:35:04.627Z,21.72
2018-07-27T21:37:36.649Z,21.66
2018-07-27T21:40:08.700Z,21.67
2018-07-27T21:42:40.834Z,21.80
2018-07-27T21:45:12.891Z,21.74
2018-07-27T21:47:44.936Z,21.65
2018-07-27T21:50:16.977Z,21.67
2018-07-27T21:52:49.003Z,21.52
2018-07-27T21:55:21.052Z,21.53
2018-07-27T21:57:53.142Z,21.62
2018-07-27T22:00:25.100Z,21.57
2018-07-27T22:02:57.127Z,21.50
2018-07-27T22:05:29.186Z,21.40
2018-07-27T22:08:01.312Z,21.46
2018-07-27T22:10:33.403Z,21.38
2018-07-27T22:13:05.517Z,21.25
2018-07-27T22:15:37.549Z,21.08
2018-07-27T22:18:09.613Z,21.03
2018-07-27T22:20:41.635Z,21.04
2018-07-27T22:23:13.699Z,21.05
2018-07-27T22:25:45.712Z,20.99
2018-07-27T22:28:17.720Z,21.13
2018-07-27T22:30:49.790Z,21.16
2018-07-27T22:33:21.798Z,21.07
2018-07-27T22:35:53.803Z,20.89
2018-07-27T22:38:25.799Z,20.70
2018-07-27T22:40:58.508Z,20.82
2018-07-27T22:43:30.606Z,20.73
2018-07-27T22:46:02.648Z,20.60
2018-07-27T22:48:35.396Z,20.40
2018-07-27T22:51:07.426Z,20.33
2018-07-27T22:53:39.448Z,20.38
2018-07-27T22:56:11.471Z,20.24
2018-07-27T22:58:43.491Z,20.21
2018-07-27T23:01:15.507Z,20.48
2018-07-27T23:03:47.590Z,20.65
2018-07-27T23:06:19.632Z,20.68
2018-07-27T23:08:51.843Z,20.48
2018-07-27T23:11:23.887Z,20.37
2018-07-27T23:13:55.927Z,20.20
2018-07-27T23:16:27.983Z,20.10
2018-07-27T23:19:00.020Z,20.01
2018-07-27T23:21:32.032Z,20.12
2018-07-27T23:24:04.110Z,20.29
2018-07-27T23:26:36.171Z,20.32
2018-07-27T23:29:08.207Z,20.31
2018-07-27T23:31:40.219Z,20.14
2018-07-27T23:34:12.267Z,20.08
2018-07-27T23:36:44.280Z,19.99
2018-07-27T23:39:16.326Z,19.84
2018-07-27T23:41:48.359Z,19.85
2018-07-27T23:44:20.359Z,19.93
2018-07-27T23:46:52.356Z,19.83
2018-07-27T23:49:24.415Z,19.69
2018-07-27T23:51:56.434Z,19.60
2018-07-27T23:54:28.466Z,19.64
2018-07-27T23:57:00.488Z,19.51
2018-07-27T23:59:32.537Z,19.48
